Time;durP1;ratioP1;P1;durP2;ratioP2;P2;SDS_P1;SDS_P2;PMS_P1;PMS_P2;Temp;Humidity;BMP_temperature;BMP_pressure;BME280_temperature;BME280_humidity;BME280_pressure;Samples;Min_cycle;Max_cycle;Signal;HPM_P1;HPM_P2
2022/11/08 00:01:32;;;;;;;;;;;;;;;26.57;19.49;98419.63;6245161;23;20369;-83
2022/11/08 00:03:58;;;;;;;;;;;;;;;26.32;19.69;98421.50;6245807;22;19919;-83
2022/11/08 00:14:39;;;;;;;;;;;;;;;26.36;19.54;98417.38;6245362;23;20049;-83
2022/11/08 00:17:05;;;;;;;;;;;;;;;26.25;19.41;98416.84;6246179;23;19954;-83
2022/11/08 00:19:31;;;;;;;;;;;;;;;25.97;20.01;98415.50;6245549;23;20778;-83
2022/11/08 00:21:57;;;;;;;;;;;;;;;26.02;20.27;98422.63;6245761;23;19919;-83
2022/11/08 00:24:23;;;;;;;;;;;;;;;26.24;19.85;98418.06;6246510;23;19950;-83
2022/11/08 00:26:49;;;;;;;;;;;;;;;26.10;20.44;98418.44;6246470;23;19950;-84
2022/11/08 00:29:15;;;;;;;;;;;;;;;25.81;20.23;98420.34;6245980;23;20323;-84
2022/11/08 00:31:42;;;;;;;;;;;;;;;25.70;20.85;98423.38;6245614;23;19912;-84
2022/11/08 00:34:08;;;;;;;;;;;;;;;25.78;20.43;98422.00;6245279;22;19989;-84
2022/11/08 00:36:34;;;;;;;;;;;;;;;25.93;20.13;98422.44;6245000;23;19920;-84
2022/11/08 00:39:00;;;;;;;;;;;;;;;26.02;20.17;98419.81;6244258;23;19911;-84
2022/11/08 00:41:26;;;;;;;;;;;;;;;26.18;19.88;98416.25;6244605;23;19984;-84
2022/11/08 00:43:52;;;;;;;;;;;;;;;25.75;20.36;98410.81;6244017;23;20341;-84
2022/11/08 00:46:18;;;;;;;;;;;;;;;25.84;20.15;98406.16;6244758;23;19918;-84
2022/11/08 00:48:44;;;;;;;;;;;;;;;26.00;20.15;98411.81;6244807;23;19911;-84
2022/11/08 00:51:11;;;;;;;;;;;;;;;26.13;19.72;98413.94;6242198;23;20249;-84
2022/11/08 00:53:38;;;;;;;;;;;;;;;26.09;20.08;98411.22;6245391;22;20041;-84
2022/11/08 00:56:05;;;;;;;;;;;;;;;26.39;19.95;98413.69;6243930;23;19921;-84
2022/11/08 00:58:31;;;;;;;;;;;;;;;26.20;19.85;98408.94;6245492;22;19957;-84
2022/11/08 01:00:57;;;;;;;;;;;;;;;25.80;20.38;98413.09;6244299;23;19912;-84
2022/11/08 01:03:24;;;;;;;;;;;;;;;25.81;20.49;98415.47;6242813;22;19958;-84
2022/11/08 01:05:51;;;;;;;;;;;;;;;25.69;20.96;98407.75;6246121;22;19916;-83
2022/11/08 01:08:18;;;;;;;;;;;;;;;25.73;20.72;98416.09;6246406;22;20022;-83
2022/11/08 01:10:46;;;;;;;;;;;;;;;25.74;20.58;98410.00;6246765;22;20395;-83
2022/11/08 01:13:12;;;;;;;;;;;;;;;26.02;20.37;98408.56;6247468;22;19912;-83
2022/11/08 01:15:39;;;;;;;;;;;;;;;26.20;20.25;98408.94;6245219;22;19912;-83
2022/11/08 01:18:06;;;;;;;;;;;;;;;26.31;20.34;98411.47;6245598;22;19912;-83
2022/11/08 01:20:32;;;;;;;;;;;;;;;26.31;20.12;98414.28;6246412;22;20384;-83
2022/11/08 01:22:58;;;;;;;;;;;;;;;26.29;20.14;98413.94;6246854;22;19919;-83
2022/11/08 01:25:24;;;;;;;;;;;;;;;26.31;20.20;98406.63;6247051;23;19957;-83
2022/11/08 01:27:50;;;;;;;;;;;;;;;26.19;20.31;98412.97;6246533;23;19911;-83
2022/11/08 01:30:16;;;;;;;;;;;;;;;26.04;20.73;98412.50;6246487;23;20537;-83
2022/11/08 01:32:42;;;;;;;;;;;;;;;26.19;20.33;98412.97;6246411;23;20045;-83
2022/11/08 01:35:08;;;;;;;;;;;;;;;26.32;20.20;98399.78;6242884;23;20053;-83
2022/11/08 01:37:34;;;;;;;;;;;;;;;26.55;20.05;98401.59;6245861;23;19970;-83
2022/11/08 01:40:00;;;;;;;;;;;;;;;26.66;19.72;98405.69;6247086;23;19954;-83
2022/11/08 01:42:27;;;;;;;;;;;;;;;26.51;19.97;98404.47;6247482;22;19915;-83
2022/11/08 01:44:57;;;;;;;;;;;;;;;26.40;20.17;98403.97;6246574;22;19915;-83
2022/11/08 01:47:23;;;;;;;;;;;;;;;26.17;19.99;98404.19;6247456;22;19916;-83
2022/11/08 01:49:51;;;;;;;;;;;;;;;26.06;20.14;98398.81;6246777;23;19912;-83
2022/11/08 01:52:23;;;;;;;;;;;;;;;25.95;20.19;98398.25;6247652;22;19912;-83
2022/11/08 01:55:22;;;;;;;;;;;;;;;25.88;20.18;98401.25;6247238;22;19934;-83
2022/11/08 01:57:56;;;;;;;;;;;;;;;25.91;20.20;98399.56;6179630;22;19911;-83
2022/11/08 02:00:22;;;;;;;;;;;;;;;25.89;20.22;98404.84;6247451;22;19969;-82
2022/11/08 02:02:56;;;;;;;;;;;;;;;25.74;20.48;98404.38;6245832;23;19961;-82
2022/11/08 02:05:25;;;;;;;;;;;;;;;25.71;20.53;98399.66;6246373;22;19925;-82
2022/11/08 02:07:51;;;;;;;;;;;;;;;25.93;20.53;98389.47;6246829;23;20223;-83
2022/11/08 02:10:18;;;;;;;;;;;;;;;26.06;20.23;98387.53;6246553;23;19918;-82
2022/11/08 02:12:45;;;;;;;;;;;;;;;26.24;20.11;98392.75;6246419;22;19908;-82
2022/11/08 02:15:12;;;;;;;;;;;;;;;26.35;19.89;98384.81;6245835;22;19911;-82
2022/11/08 02:17:38;;;;;;;;;;;;;;;26.40;19.86;98386.28;6246734;22;19912;-82
2022/11/08 02:20:05;;;;;;;;;;;;;;;26.58;19.84;98387.38;6246048;23;19957;-82
2022/11/08 02:22:44;;;;;;;;;;;;;;;26.47;19.88;98394.53;6246951;22;19988;-82
2022/11/08 02:25:11;;;;;;;;;;;;;;;26.30;20.00;98381.75;6247045;22;19911;-82
2022/11/08 02:27:37;;;;;;;;;;;;;;;26.33;20.04;98381.66;6246399;22;19980;-83
2022/11/08 02:30:03;;;;;;;;;;;;;;;26.36;19.97;98380.78;6246284;23;20349;-82
2022/11/08 02:32:39;;;;;;;;;;;;;;;26.58;19.74;98378.94;6246457;22;19992;-83
2022/11/08 02:35:07;;;;;;;;;;;;;;;26.60;19.55;98387.75;6245372;22;19915;-81
2022/11/08 02:37:33;;;;;;;;;;;;;;;26.38;20.25;98380.31;6245592;22;19927;-82
2022/11/08 02:39:59;;;;;;;;;;;;;;;26.24;19.94;98381.47;6245892;22;19912;-82
2022/11/08 02:42:25;;;;;;;;;;;;;;;26.24;20.17;98378.66;6246956;23;19930;-82
2022/11/08 02:44:51;;;;;;;;;;;;;;;26.28;19.99;98384.22;6245955;23;19919;-82
2022/11/08 02:47:17;;;;;;;;;;;;;;;26.35;20.27;98379.16;6246387;23;20271;-82
2022/11/08 02:49:43;;;;;;;;;;;;;;;26.08;20.60;98379.44;6245653;23;19947;-82
2022/11/08 02:52:09;;;;;;;;;;;;;;;26.10;20.26;98381.84;6243872;23;19922;-82
2022/11/08 02:54:35;;;;;;;;;;;;;;;26.11;20.56;98377.81;6246269;23;20253;-83
2022/11/08 02:57:01;;;;;;;;;;;;;;;26.15;20.40;98381.31;6246518;23;19912;-83
2022/11/08 02:59:27;;;;;;;;;;;;;;;26.17;20.57;98380.88;6246188;23;19912;-83
2022/11/08 03:04:38;;;;;;;;;;;;;;;26.51;20.09;98384.00;6244646;23;19922;-83
2022/11/08 03:07:04;;;;;;;;;;;;;;;26.48;20.37;98390.50;6246553;23;19989;-83
2022/11/08 03:09:30;;;;;;;;;;;;;;;26.39;20.63;98381.91;6246054;23;19950;-82
2022/11/08 03:11:56;;;;;;;;;;;;;;;26.37;20.81;98382.34;6246226;23;19990;-83
2022/11/08 03:14:22;;;;;;;;;;;;;;;26.38;20.66;98378.28;6246698;23;20002;-83
2022/11/08 03:16:48;;;;;;;;;;;;;;;26.51;20.93;98384.78;6245758;23;19912;-83
2022/11/08 03:19:14;;;;;;;;;;;;;;;26.63;20.94;98386.84;6246225;23;20658;-82
2022/11/08 03:21:40;;;;;;;;;;;;;;;26.73;20.67;98384.97;6246243;23;19912;-83
2022/11/08 03:24:06;;;;;;;;;;;;;;;26.78;20.42;98383.69;6246413;23;19919;-83
2022/11/08 03:26:32;;;;;;;;;;;;;;;26.47;20.60;98380.47;6245816;22;19919;-83
2022/11/08 03:28:58;;;;;;;;;;;;;;;26.38;20.63;98381.09;6246816;23;19985;-83
2022/11/08 03:31:24;;;;;;;;;;;;;;;26.55;20.84;98382.66;6246148;23;19946;-83
2022/11/08 03:33:50;;;;;;;;;;;;;;;26.58;20.68;98384.56;6245492;23;19956;-83
2022/11/08 03:36:16;;;;;;;;;;;;;;;26.54;20.49;98388.72;6243826;23;20361;-83
2022/11/08 03:38:42;;;;;;;;;;;;;;;26.55;20.70;98377.03;6245714;23;20069;-83
2022/11/08 03:41:07;;;;;;;;;;;;;;;26.78;20.05;98386.50;6246405;23;19951;-83
2022/11/08 03:43:33;;;;;;;;;;;;;;;26.85;19.95;98391.94;6244039;23;19916;-83
2022/11/08 03:45:59;;;;;;;;;;;;;;;26.62;20.37;98385.28;6244758;23;19912;-83
2022/11/08 03:48:25;;;;;;;;;;;;;;;26.49;20.72;98392.88;6246050;23;19933;-83
2022/11/08 03:50:51;;;;;;;;;;;;;;;26.38;20.81;98386.75;6245528;23;19911;-83
2022/11/08 03:53:17;;;;;;;;;;;;;;;26.56;20.26;98391.88;6245519;23;19939;-82
2022/11/08 03:55:43;;;;;;;;;;;;;;;26.66;19.85;98388.78;6245708;23;19912;-82
2022/11/08 03:58:10;;;;;;;;;;;;;;;26.60;20.26;98384.94;6246422;23;20317;-82
2022/11/08 04:00:36;;;;;;;;;;;;;;;26.48;20.63;98391.31;6245134;22;20289;-82
2022/11/08 04:03:02;;;;;;;;;;;;;;;26.61;20.46;98388.53;6245821;23;19911;-81
2022/11/08 04:05:31;;;;;;;;;;;;;;;26.71;20.10;98393.09;6243556;23;19919;-82
2022/11/08 04:07:58;;;;;;;;;;;;;;;26.71;20.21;98388.25;6245683;22;20341;-82
2022/11/08 04:10:24;;;;;;;;;;;;;;;26.67;20.63;98390.38;6245984;22;19912;-82
2022/11/08 04:15:34;;;;;;;;;;;;;;;25.95;20.57;98378.56;6244005;23;19993;-82
2022/11/08 04:23:31;;;;;;;;;;;;;;;26.26;20.95;98392.28;6245206;23;19919;-82
2022/11/08 04:25:58;;;;;;;;;;;;;;;26.20;20.52;98392.03;6245667;22;19919;-82
2022/11/08 04:28:25;;;;;;;;;;;;;;;26.34;20.13;98397.31;6245284;22;19912;-82
2022/11/08 04:30:52;;;;;;;;;;;;;;;26.43;19.86;98391.84;6243804;22;20352;-82
2022/11/08 04:33:18;;;;;;;;;;;;;;;26.47;19.71;98398.16;6244107;22;19926;-82
2022/11/08 04:35:43;;;;;;;;;;;;;;;26.22;20.00;98389.59;6243333;23;19990;-82
2022/11/08 04:38:09;;;;;;;;;;;;;;;26.37;20.01;98381.56;6243780;23;19965;-82
2022/11/08 04:40:35;;;;;;;;;;;;;;;26.54;19.77;98383.91;6244705;23;19943;-82
2022/11/08 04:43:01;;;;;;;;;;;;;;;26.50;19.70;98385.22;6244152;23;20242;-82
2022/11/08 04:45:27;;;;;;;;;;;;;;;26.48;19.36;98384.88;6243541;23;19927;-82
2022/11/08 04:47:53;;;;;;;;;;;;;;;26.29;19.66;98378.13;6241987;23;19962;-81
2022/11/08 04:50:19;;;;;;;;;;;;;;;26.32;19.58;98374.44;6243333;23;20347;-82
2022/11/08 04:52:52;;;;;;;;;;;;;;;26.24;19.94;98387.09;6242161;23;19912;-82
2022/11/08 04:55:19;;;;;;;;;;;;;;;26.16;20.32;98380.09;6244908;22;19912;-83
2022/11/08 04:57:45;;;;;;;;;;;;;;;25.95;20.64;98381.38;6245116;22;20329;-84
2022/11/08 05:00:12;;;;;;;;;;;;;;;26.01;19.89;98373.19;6243463;22;19983;-84
2022/11/08 05:02:38;;;;;;;;;;;;;;;25.67;20.47;98370.81;6244268;22;19946;-84
2022/11/08 05:05:04;;;;;;;;;;;;;;;25.83;20.89;98378.47;6243223;23;19915;-84
2022/11/08 05:07:30;;;;;;;;;;;;;;;26.05;20.94;98371.88;6244213;22;20006;-84
2022/11/08 05:10:02;;;;;;;;;;;;;;;26.18;20.09;98369.19;6245207;23;20274;-85
2022/11/08 05:12:28;;;;;;;;;;;;;;;26.22;19.91;98374.72;6244079;23;19912;-84
2022/11/08 05:14:54;;;;;;;;;;;;;;;26.20;19.64;98368.72;6245422;22;19908;-84
2022/11/08 05:17:20;;;;;;;;;;;;;;;26.19;19.80;98373.56;6243836;23;19934;-84
2022/11/08 05:25:16;;;;;;;;;;;;;;;26.46;19.86;98374.06;6244078;23;19918;-84
2022/11/08 05:27:47;;;;;;;;;;;;;;;26.14;20.07;98373.31;6243237;23;19926;-84
2022/11/08 05:30:21;;;;;;;;;;;;;;;26.24;19.97;98377.88;6242682;23;19914;-84
2022/11/08 05:32:49;;;;;;;;;;;;;;;26.51;19.94;98381.19;6243328;22;19912;-83
2022/11/08 05:35:17;;;;;;;;;;;;;;;26.62;19.81;98373.22;6244775;22;19915;-83
2022/11/08 05:37:43;;;;;;;;;;;;;;;26.58;19.97;98378.19;6242151;23;19923;-82
2022/11/08 05:40:10;;;;;;;;;;;;;;;26.13;20.17;98378.16;6244442;23;19911;-84
2022/11/08 05:42:36;;;;;;;;;;;;;;;26.01;20.39;98381.66;6242986;22;19915;-83
2022/11/08 05:45:02;;;;;;;;;;;;;;;25.95;20.57;98380.59;6243489;23;20285;-83
2022/11/08 05:47:28;;;;;;;;;;;;;;;25.96;20.92;98382.16;6242978;22;19930;-82
2022/11/08 05:49:54;;;;;;;;;;;;;;;25.99;21.01;98386.94;6242507;22;20298;-82
2022/11/08 05:52:20;;;;;;;;;;;;;;;25.92;20.95;98392.72;6245902;23;19918;-82
2022/11/08 05:54:46;;;;;;;;;;;;;;;25.93;20.71;98386.66;6245032;23;20297;-82
2022/11/08 05:57:12;;;;;;;;;;;;;;;26.04;20.65;98392.03;6245692;23;19923;-82
2022/11/08 05:59:38;;;;;;;;;;;;;;;26.04;20.32;98389.22;6246015;23;19999;-82
2022/11/08 06:02:04;;;;;;;;;;;;;;;25.97;20.57;98392.22;6247148;23;19919;-82
2022/11/08 06:04:30;;;;;;;;;;;;;;;26.08;20.61;98395.53;6247916;23;19946;-82
2022/11/08 06:06:56;;;;;;;;;;;;;;;26.33;20.77;98397.75;6247744;23;19980;-82
2022/11/08 06:09:22;;;;;;;;;;;;;;;26.48;20.59;98394.13;6247348;23;19923;-82
2022/11/08 06:11:48;;;;;;;;;;;;;;;26.71;20.39;98395.91;6247544;23;19911;-82
2022/11/08 06:14:14;;;;;;;;;;;;;;;26.85;20.03;98403.19;6247821;23;20285;-82
2022/11/08 06:16:40;;;;;;;;;;;;;;;26.71;20.08;98399.53;6246071;23;19911;-82
2022/11/08 06:19:06;;;;;;;;;;;;;;;26.57;20.64;98397.09;6247762;23;19918;-82
2022/11/08 06:24:17;;;;;;;;;;;;;;;26.39;20.99;98396.78;6246890;23;19919;-82
2022/11/08 06:26:43;;;;;;;;;;;;;;;26.24;21.27;98398.38;6247644;23;20252;-82
2022/11/08 06:29:09;;;;;;;;;;;;;;;26.31;21.14;98403.03;6247039;22;19937;-82
2022/11/08 06:31:35;;;;;;;;;;;;;;;26.23;21.81;98410.09;6246551;23;20375;-82
2022/11/08 06:34:01;;;;;;;;;;;;;;;26.06;21.51;98403.63;6247212;23;19919;-82
2022/11/08 06:36:27;;;;;;;;;;;;;;;26.11;22.14;98411.59;6246472;22;20310;-83
2022/11/08 06:38:53;;;;;;;;;;;;;;;26.20;21.90;98408.13;6247536;23;20037;-82
2022/11/08 06:41:20;;;;;;;;;;;;;;;26.19;22.25;98406.53;6247419;22;19919;-82
2022/11/08 06:43:46;;;;;;;;;;;;;;;26.32;22.12;98413.84;6247188;22;19915;-82
2022/11/08 06:46:12;;;;;;;;;;;;;;;26.61;22.05;98409.03;6247829;22;19915;-82
2022/11/08 06:48:38;;;;;;;;;;;;;;;26.74;21.82;98414.75;6247404;23;20245;-82
2022/11/08 06:51:05;;;;;;;;;;;;;;;26.35;22.23;98412.97;6247523;23;19912;-82
2022/11/08 06:53:31;;;;;;;;;;;;;;;25.99;22.76;98412.25;6247120;22;19963;-82
2022/11/08 06:55:58;;;;;;;;;;;;;;;26.03;22.98;98419.38;6246830;22;19912;-82
2022/11/08 06:58:24;;;;;;;;;;;;;;;26.33;22.74;98417.44;6247045;22;19911;-82
2022/11/08 07:00:50;;;;;;;;;;;;;;;26.25;23.16;98428.13;6245480;23;19912;-82
2022/11/08 07:03:16;;;;;;;;;;;;;;;26.46;22.96;98424.75;6246938;23;19912;-82
2022/11/08 07:05:42;;;;;;;;;;;;;;;26.70;22.52;98425.31;6245636;22;20298;-82
2022/11/08 07:08:08;;;;;;;;;;;;;;;27.04;22.30;98424.81;6246816;23;19954;-82
2022/11/08 07:10:35;;;;;;;;;;;;;;;27.14;22.20;98424.50;6247372;23;20245;-82
2022/11/08 07:13:05;;;;;;;;;;;;;;;27.11;22.31;98425.41;6247420;22;19911;-82
2022/11/08 07:15:32;;;;;;;;;;;;;;;27.22;22.72;98423.06;6247112;22;19965;-82
2022/11/08 07:17:59;;;;;;;;;;;;;;;27.22;22.86;98423.06;6247296;22;19916;-82
2022/11/08 07:20:25;;;;;;;;;;;;;;;27.31;22.77;98430.84;6246531;22;19943;-82
2022/11/08 07:22:55;;;;;;;;;;;;;;;27.21;22.53;98427.09;6246226;23;19919;-82
2022/11/08 07:25:21;;;;;;;;;;;;;;;27.54;22.69;98432.63;6245272;23;19912;-82
2022/11/08 07:27:47;;;;;;;;;;;;;;;27.42;22.54;98428.56;6247285;22;19916;-82
2022/11/08 07:30:13;;;;;;;;;;;;;;;27.67;22.63;98431.41;6247099;23;20292;-82
2022/11/08 07:32:39;;;;;;;;;;;;;;;27.42;22.76;98431.38;6247032;23;19911;-82
2022/11/08 07:35:05;;;;;;;;;;;;;;;27.87;22.44;98442.47;6246570;23;19915;-82
2022/11/08 07:37:32;;;;;;;;;;;;;;;28.23;22.22;98439.31;6246342;22;19973;-82
2022/11/08 07:39:58;;;;;;;;;;;;;;;28.50;21.59;98428.28;6246778;22;19915;-82
2022/11/08 07:42:24;;;;;;;;;;;;;;;28.59;22.16;98425.63;6246968;23;19915;-82
2022/11/08 07:44:50;;;;;;;;;;;;;;;28.43;22.42;98428.53;6246423;23;20329;-82
2022/11/08 07:47:16;;;;;;;;;;;;;;;28.32;22.54;98428.13;6246285;23;19939;-82
2022/11/08 07:49:42;;;;;;;;;;;;;;;28.21;22.69;98424.88;6247083;23;20320;-82
2022/11/08 07:52:08;;;;;;;;;;;;;;;27.90;22.77;98425.44;6246555;23;19911;-82
2022/11/08 07:54:34;;;;;;;;;;;;;;;28.49;22.18;98418.25;6244863;23;19911;-82
2022/11/08 07:56:59;;;;;;;;;;;;;;;28.67;21.96;98415.63;6246045;23;20002;-82
2022/11/08 07:59:25;;;;;;;;;;;;;;;28.13;21.98;98418.66;6246622;23;20006;-82
2022/11/08 08:01:51;;;;;;;;;;;;;;;28.70;21.97;98423.19;6246220;23;19907;-82
2022/11/08 08:04:17;;;;;;;;;;;;;;;28.73;22.17;98413.78;6246547;23;19911;-83
2022/11/08 08:06:43;;;;;;;;;;;;;;;28.84;21.31;98414.22;6246404;23;19939;-82
2022/11/08 08:09:10;;;;;;;;;;;;;;;28.91;22.02;98415.97;6246753;23;19919;-82
2022/11/08 08:11:36;;;;;;;;;;;;;;;28.73;21.86;98414.56;6246468;22;19991;-82
2022/11/08 08:14:02;;;;;;;;;;;;;;;28.68;22.06;98415.16;6244932;23;19918;-82
2022/11/08 08:16:28;;;;;;;;;;;;;;;28.62;22.17;98419.03;6246181;23;19915;-82
2022/11/08 08:18:54;;;;;;;;;;;;;;;28.46;22.29;98419.16;6245956;23;20322;-82
2022/11/08 08:21:20;;;;;;;;;;;;;;;28.77;22.30;98416.50;6246296;23;19918;-82
2022/11/08 08:23:46;;;;;;;;;;;;;;;28.85;22.00;98412.94;6244894;23;19918;-82
2022/11/08 08:26:12;;;;;;;;;;;;;;;28.31;22.65;98413.19;6245904;23;19912;-82
2022/11/08 08:28:37;;;;;;;;;;;;;;;29.08;21.72;98412.50;6242716;23;20349;-82
2022/11/08 08:31:05;;;;;;;;;;;;;;;29.13;22.04;98414.72;6245609;23;19919;-82
2022/11/08 08:33:32;;;;;;;;;;;;;;;29.00;22.25;98407.56;6246411;22;20333;-83
2022/11/08 08:36:00;;;;;;;;;;;;;;;29.32;21.87;98410.00;6246103;22;19915;-83
2022/11/08 08:38:26;;;;;;;;;;;;;;;29.64;21.26;98409.56;6244980;22;20049;-82
2022/11/08 08:40:52;;;;;;;;;;;;;;;29.69;21.70;98408.97;6246122;23;19970;-82
2022/11/08 08:43:18;;;;;;;;;;;;;;;29.68;21.24;98413.06;6246329;23;20329;-83
2022/11/08 08:45:44;;;;;;;;;;;;;;;29.80;21.15;98400.84;6242307;22;20364;-83
2022/11/08 08:48:10;;;;;;;;;;;;;;;29.82;21.12;98406.06;6245269;23;19911;-82
2022/11/08 08:50:36;;;;;;;;;;;;;;;29.40;21.70;98414.16;6246084;23;19991;-83
2022/11/08 08:53:04;;;;;;;;;;;;;;;29.75;21.71;98409.16;6246335;23;19939;-82
2022/11/08 08:55:30;;;;;;;;;;;;;;;29.48;21.98;98411.84;6246124;22;19912;-83
2022/11/08 08:57:57;;;;;;;;;;;;;;;29.71;21.78;98406.44;6246171;22;19911;-83
2022/11/08 09:00:23;;;;;;;;;;;;;;;28.82;22.13;98407.44;6246422;23;20253;-82
2022/11/08 09:02:49;;;;;;;;;;;;;;;29.51;21.97;98408.09;6245549;22;19908;-83
2022/11/08 09:05:15;;;;;;;;;;;;;;;30.15;20.85;98400.69;6245709;23;19922;-83
2022/11/08 09:07:41;;;;;;;;;;;;;;;29.04;21.56;98399.75;6246183;23;19934;-83
2022/11/08 09:10:08;;;;;;;;;;;;;;;28.90;22.14;98403.09;6246563;23;19911;-83
2022/11/08 09:12:34;;;;;;;;;;;;;;;29.37;21.79;98404.56;6246192;22;20246;-83
2022/11/08 09:15:00;;;;;;;;;;;;;;;29.78;21.25;98403.38;6246413;23;19953;-83
2022/11/08 09:17:27;;;;;;;;;;;;;;;30.11;21.58;98394.38;6245836;22;20249;-83
2022/11/08 09:19:53;;;;;;;;;;;;;;;30.49;20.32;98392.75;6245463;22;19918;-83
2022/11/08 09:22:19;;;;;;;;;;;;;;;30.61;20.29;98394.66;6246233;22;19912;-83
2022/11/08 09:24:45;;;;;;;;;;;;;;;30.95;20.19;98396.41;6246369;23;20310;-83
2022/11/08 09:27:11;;;;;;;;;;;;;;;31.34;20.00;98397.47;6246453;23;19961;-83
2022/11/08 09:29:37;;;;;;;;;;;;;;;31.26;19.39;98393.38;6248190;22;19911;-83
2022/11/08 09:32:03;;;;;;;;;;;;;;;30.87;19.63;98389.47;6246121;23;19919;-83
2022/11/08 09:34:29;;;;;;;;;;;;;;;30.95;19.89;98399.25;6247393;23;19978;-83
2022/11/08 09:36:55;;;;;;;;;;;;;;;30.81;19.52;98394.16;6247568;23;19915;-83
2022/11/08 09:39:21;;;;;;;;;;;;;;;30.31;20.14;98392.69;6248060;23;20333;-83
2022/11/08 09:41:54;;;;;;;;;;;;;;;30.87;19.58;98391.50;6248279;23;19919;-83
2022/11/08 09:44:25;;;;;;;;;;;;;;;31.07;19.78;98392.63;6247786;23;19916;-83
2022/11/08 09:46:53;;;;;;;;;;;;;;;31.35;19.43;98390.50;6247764;23;19912;-83
2022/11/08 09:49:32;;;;;;;;;;;;;;;31.56;19.07;98394.41;6247642;22;19966;-83
2022/11/08 09:51:59;;;;;;;;;;;;;;;31.72;18.86;98394.03;6248050;22;20356;-83
2022/11/08 09:54:30;;;;;;;;;;;;;;;31.76;18.89;98391.84;6247461;22;19918;-83
2022/11/08 09:56:57;;;;;;;;;;;;;;;31.45;20.04;98396.97;6247572;22;19911;-83
2022/11/08 09:59:41;;;;;;;;;;;;;;;31.70;18.78;98394.53;6248175;22;19915;-83
2022/11/08 10:02:20;;;;;;;;;;;;;;;31.89;19.21;98401.72;6247415;23;20387;-83
2022/11/08 10:04:50;;;;;;;;;;;;;;;32.28;19.28;98394.13;6247038;22;20382;-83
2022/11/08 10:07:16;;;;;;;;;;;;;;;32.45;18.44;98405.84;6247784;22;19994;-83
2022/11/08 10:09:42;;;;;;;;;;;;;;;32.65;18.15;98386.19;6247640;23;19993;-83
2022/11/08 10:12:27;;;;;;;;;;;;;;;32.39;17.90;98393.59;6247502;23;20270;-83
2022/11/08 10:15:12;;;;;;;;;;;;;;;31.96;19.39;98394.91;6247615;23;19957;-83
2022/11/08 10:17:53;;;;;;;;;;;;;;;32.45;19.14;98386.75;6247228;23;19920;-83
2022/11/08 10:20:23;;;;;;;;;;;;;;;31.96;19.34;98387.19;6247672;22;20001;-83
2022/11/08 10:23:02;;;;;;;;;;;;;;;32.08;19.19;98380.50;6247572;22;19919;-83
2022/11/08 10:25:32;;;;;;;;;;;;;;;31.58;18.77;98383.41;6247702;22;19911;-84
2022/11/08 10:27:58;;;;;;;;;;;;;;;30.96;19.88;98380.19;6247062;22;20238;-83
2022/11/08 10:30:38;;;;;;;;;;;;;;;31.57;19.38;98364.78;6247401;22;19912;-83
2022/11/08 10:33:19;;;;;;;;;;;;;;;32.04;18.88;98367.75;6247336;22;19935;-83
2022/11/08 10:35:57;;;;;;;;;;;;;;;32.58;17.44;98360.97;6246401;23;19986;-83
2022/11/08 10:38:29;;;;;;;;;;;;;;;32.85;18.26;98357.06;6247513;23;19958;-83
2022/11/08 10:41:00;;;;;;;;;;;;;;;33.01;18.65;98359.44;6247688;22;20288;-83
2022/11/08 10:43:33;;;;;;;;;;;;;;;33.17;18.38;98356.16;6247198;22;19920;-84
2022/11/08 10:45:58;;;;;;;;;;;;;;;33.29;17.73;98352.25;6247079;22;19912;-83
2022/11/08 10:48:25;;;;;;;;;;;;;;;33.51;18.04;98354.69;6247145;23;19908;-83
2022/11/08 10:50:51;;;;;;;;;;;;;;;33.45;17.70;98348.88;6247238;23;19915;-83
2022/11/08 10:53:21;;;;;;;;;;;;;;;33.53;17.69;98355.00;6247345;22;19915;-84
2022/11/08 10:55:48;;;;;;;;;;;;;;;33.55;17.02;98343.91;6247389;22;19907;-83
2022/11/08 10:58:44;;;;;;;;;;;;;;;33.55;16.76;98341.84;6247470;22;19919;-83
2022/11/08 11:01:10;;;;;;;;;;;;;;;33.32;17.24;98337.03;6220861;22;19973;-83
2022/11/08 11:03:36;;;;;;;;;;;;;;;33.58;17.05;98334.38;6246857;23;20246;-83
2022/11/08 11:06:03;;;;;;;;;;;;;;;33.87;17.19;98332.25;6246346;23;20381;-83
2022/11/08 11:08:30;;;;;;;;;;;;;;;32.40;18.07;98321.25;6247364;22;19920;-84
2022/11/08 11:11:12;;;;;;;;;;;;;;;31.63;18.76;98325.94;6247369;22;19918;-83
2022/11/08 11:13:38;;;;;;;;;;;;;;;32.31;18.48;98312.78;6245945;22;19994;-84
2022/11/08 11:16:04;;;;;;;;;;;;;;;32.88;17.40;98307.75;6247413;23;19915;-83
2022/11/08 11:18:34;;;;;;;;;;;;;;;33.13;16.99;98310.03;6245198;23;19916;-84
2022/11/08 11:21:01;;;;;;;;;;;;;;;33.44;17.15;98307.47;6246499;22;19918;-83
2022/11/08 11:23:34;;;;;;;;;;;;;;;33.14;16.92;98301.00;6246703;22;19919;-83
2022/11/08 11:26:00;;;;;;;;;;;;;;;31.94;18.06;98306.53;6247036;22;19987;-83
2022/11/08 11:28:26;;;;;;;;;;;;;;;32.42;17.51;98305.28;6246881;22;19912;-84
2022/11/08 11:31:00;;;;;;;;;;;;;;;33.07;17.25;98298.56;6247223;23;20269;-84
2022/11/08 11:33:28;;;;;;;;;;;;;;;33.17;17.07;98299.25;6247261;22;19985;-83
2022/11/08 11:36:06;;;;;;;;;;;;;;;33.41;16.60;98302.75;6245948;22;19922;-83
2022/11/08 11:38:45;;;;;;;;;;;;;;;33.59;16.78;98296.84;6246835;22;20002;-84
2022/11/08 11:41:16;;;;;;;;;;;;;;;33.47;17.07;98292.22;6246876;22;19912;-84
2022/11/08 11:43:59;;;;;;;;;;;;;;;33.72;15.98;98288.00;6246363;22;19946;-84
2022/11/08 11:46:30;;;;;;;;;;;;;;;33.87;16.68;98291.56;6245679;23;19957;-84
2022/11/08 11:49:00;;;;;;;;;;;;;;;34.22;16.04;98295.19;6246137;22;19960;-84
2022/11/08 11:51:28;;;;;;;;;;;;;;;34.31;16.52;98295.03;6246734;22;19912;-84
2022/11/08 11:53:55;;;;;;;;;;;;;;;33.98;16.17;98288.91;6244906;23;19931;-84
2022/11/08 11:56:31;;;;;;;;;;;;;;;33.98;14.94;98286.06;6246502;22;19911;-84
2022/11/08 11:59:15;;;;;;;;;;;;;;;33.64;16.22;98281.13;6246477;22;19912;-84
2022/11/08 12:01:44;;;;;;;;;;;;;;;33.58;16.22;98283.13;6246500;23;19911;-84
2022/11/08 12:04:28;;;;;;;;;;;;;;;32.91;16.53;98276.25;6245993;23;19918;-84
2022/11/08 12:07:13;;;;;;;;;;;;;;;33.18;17.23;98276.00;6246623;23;19938;-84
2022/11/08 12:09:39;;;;;;;;;;;;;;;33.20;16.95;98276.28;6246349;22;19946;-84
2022/11/08 12:12:11;;;;;;;;;;;;;;;33.49;16.98;98280.38;6246250;23;19912;-84
2022/11/08 12:14:46;;;;;;;;;;;;;;;33.68;16.93;98276.03;6246635;22;19918;-84
2022/11/08 12:17:31;;;;;;;;;;;;;;;33.81;15.65;98279.31;6246640;22;19923;-84
2022/11/08 12:19:57;;;;;;;;;;;;;;;33.41;16.06;98269.38;6246022;23;19912;-84
2022/11/08 12:22:44;;;;;;;;;;;;;;;33.31;16.91;98276.47;6244261;23;20293;-84
2022/11/08 12:25:23;;;;;;;;;;;;;;;33.33;16.66;98273.13;6246268;22;19919;-84
2022/11/08 12:27:55;;;;;;;;;;;;;;;33.57;16.71;98270.16;6246242;22;19957;-84
2022/11/08 12:30:27;;;;;;;;;;;;;;;33.04;17.17;98265.41;6245076;23;19908;-84
2022/11/08 12:33:13;;;;;;;;;;;;;;;33.40;16.32;98273.50;6246422;22;19911;-84
2022/11/08 12:35:49;;;;;;;;;;;;;;;33.67;16.47;98263.06;6246458;22;20308;-84
2022/11/08 12:38:44;;;;;;;;;;;;;;;33.66;16.73;98258.63;6245334;22;19963;-84
2022/11/08 12:41:22;;;;;;;;;;;;;;;33.81;16.00;98263.03;6219759;22;19994;-84
2022/11/08 12:44:07;;;;;;;;;;;;;;;34.12;15.74;98259.59;6242918;23;19926;-84
2022/11/08 12:46:40;;;;;;;;;;;;;;;34.06;15.91;98256.66;6245812;22;19953;-84
2022/11/08 12:49:09;;;;;;;;;;;;;;;33.23;16.14;98258.22;6246429;22;19939;-83
2022/11/08 12:51:44;;;;;;;;;;;;;;;32.43;17.34;98264.22;6246345;23;19974;-84
2022/11/08 12:54:29;;;;;;;;;;;;;;;32.73;16.71;98251.63;6246818;22;19931;-84
2022/11/08 12:56:58;;;;;;;;;;;;;;;32.65;16.94;98252.53;6244723;23;19986;-84
2022/11/08 12:59:33;;;;;;;;;;;;;;;32.81;16.83;98256.94;6244540;22;20218;-84
2022/11/08 13:02:02;;;;;;;;;;;;;;;32.58;17.41;98247.22;6246060;22;19912;-84
2022/11/08 13:04:35;;;;;;;;;;;;;;;32.79;17.13;98251.75;6247534;22;19916;-84
2022/11/08 13:07:03;;;;;;;;;;;;;;;33.02;16.34;98239.50;6248643;23;19935;-84
2022/11/08 13:09:45;;;;;;;;;;;;;;;33.23;16.43;98240.38;6248001;23;19943;-84
2022/11/08 13:12:26;;;;;;;;;;;;;;;33.50;15.74;98247.75;6246892;22;19912;-84
2022/11/08 13:14:52;;;;;;;;;;;;;;;33.45;16.04;98240.69;6247689;23;19918;-84
2022/11/08 13:17:25;;;;;;;;;;;;;;;33.64;15.90;98242.06;6247095;23;19919;-84
2022/11/08 13:19:52;;;;;;;;;;;;;;;33.29;15.65;98238.38;6247407;22;19912;-84
2022/11/08 13:22:28;;;;;;;;;;;;;;;33.04;15.95;98236.97;6247613;22;20326;-84